sensor_id;sensor_type;location;lat;lon;timestamp;temperature;humidity
20057;DHT22;10189;49.546;7.906;2024-02-28T00:01:04;0.20;99.90
20057;DHT22;10189;49.546;7.906;2024-02-28T00:03:30;0.20;99.90
20057;DHT22;10189;49.546;7.906;2024-02-28T00:05:57;0.10;99.90
20057;DHT22;10189;49.546;7.906;2024-02-28T00:08:23;0.10;99.90
20057;DHT22;10189;49.546;7.906;2024-02-28T00:10:49;0.10;99.90
20057;DHT22;10189;49.546;7.906;2024-02-28T00:13:15;0.10;99.90
20057;DHT22;10189;49.546;7.906;2024-02-28T00:15:41;0.10;99.90
20057;DHT22;10189;49.546;7.906;2024-02-28T00:18:07;0.00;99.90
20057;DHT22;10189;49.546;7.906;2024-02-28T00:20:33;0.00;99.90
20057;DHT22;10189;49.546;7.906;2024-02-28T00:22:59;0.00;99.90
20057;DHT22;10189;49.546;7.906;2024-02-28T00:25:25;-0.10;99.90
20057;DHT22;10189;49.546;7.906;2024-02-28T00:27:51;-0.10;99.90
20057;DHT22;10189;49.546;7.906;2024-02-28T00:30:17;-0.10;99.90
20057;DHT22;10189;49.546;7.906;2024-02-28T00:32:43;-0.20;99.90
20057;DHT22;10189;49.546;7.906;2024-02-28T00:35:09;-0.20;99.90
20057;DHT22;10189;49.546;7.906;2024-02-28T00:37:35;-0.10;99.90
20057;DHT22;10189;49.546;7.906;2024-02-28T00:40:01;-0.10;99.90
20057;DHT22;10189;49.546;7.906;2024-02-28T00:42:27;0.00;99.90
20057;DHT22;10189;49.546;7.906;2024-02-28T00:44:53;-0.10;99.90
20057;DHT22;10189;49.546;7.906;2024-02-28T00:47:18;-0.10;99.90
20057;DHT22;10189;49.546;7.906;2024-02-28T00:49:44;-0.20;99.90
20057;DHT22;10189;49.546;7.906;2024-02-28T00:52:10;-0.20;99.90
20057;DHT22;10189;49.546;7.906;2024-02-28T00:54:36;-0.30;99.90
20057;DHT22;10189;49.546;7.906;2024-02-28T00:57:02;-0.40;99.90
20057;DHT22;10189;49.546;7.906;2024-02-28T00:59:28;-0.40;99.90
20057;DHT22;10189;49.546;7.906;2024-02-28T01:01:54;-0.30;99.90
20057;DHT22;10189;49.546;7.906;2024-02-28T01:04:20;-0.30;99.90
20057;DHT22;10189;49.546;7.906;2024-02-28T01:06:46;-0.40;99.90
20057;DHT22;10189;49.546;7.906;2024-02-28T01:09:12;-0.40;99.90
20057;DHT22;10189;49.546;7.906;2024-02-28T01:11:37;-0.40;99.90
20057;DHT22;10189;49.546;7.906;2024-02-28T01:14:04;-0.40;99.90
20057;DHT22;10189;49.546;7.906;2024-02-28T01:16:30;-0.40;99.90
20057;DHT22;10189;49.546;7.906;2024-02-28T01:18:56;-0.40;99.90
20057;DHT22;10189;49.546;7.906;2024-02-28T01:21:22;-0.50;99.90
20057;DHT22;10189;49.546;7.906;2024-02-28T01:23:47;-0.40;99.90
20057;DHT22;10189;49.546;7.906;2024-02-28T01:26:13;-0.40;99.90
20057;DHT22;10189;49.546;7.906;2024-02-28T01:28:40;-0.50;99.90
20057;DHT22;10189;49.546;7.906;2024-02-28T01:31:08;-0.50;99.90
20057;DHT22;10189;49.546;7.906;2024-02-28T01:33:34;-0.50;99.90
20057;DHT22;10189;49.546;7.906;2024-02-28T01:35:59;-0.50;99.90
20057;DHT22;10189;49.546;7.906;2024-02-28T01:38:26;-0.50;99.90
20057;DHT22;10189;49.546;7.906;2024-02-28T01:40:52;-0.50;99.90
20057;DHT22;10189;49.546;7.906;2024-02-28T01:43:18;-0.50;99.90
20057;DHT22;10189;49.546;7.906;2024-02-28T01:45:44;-0.50;99.90
20057;DHT22;10189;49.546;7.906;2024-02-28T01:48:10;-0.50;99.90
20057;DHT22;10189;49.546;7.906;2024-02-28T01:50:38;-0.60;99.90
20057;DHT22;10189;49.546;7.906;2024-02-28T01:53:06;-0.60;99.90
20057;DHT22;10189;49.546;7.906;2024-02-28T01:55:35;-0.70;99.90
20057;DHT22;10189;49.546;7.906;2024-02-28T01:58:02;-0.70;99.90
20057;DHT22;10189;49.546;7.906;2024-02-28T02:00:32;-0.70;99.90
20057;DHT22;10189;49.546;7.906;2024-02-28T02:03:03;-0.70;99.90
20057;DHT22;10189;49.546;7.906;2024-02-28T02:05:29;-0.70;99.90
20057;DHT22;10189;49.546;7.906;2024-02-28T02:07:57;-0.70;99.90
20057;DHT22;10189;49.546;7.906;2024-02-28T02:10:25;-0.70;99.90
20057;DHT22;10189;49.546;7.906;2024-02-28T02:12:51;-0.80;99.90
20057;DHT22;10189;49.546;7.906;2024-02-28T02:15:18;-0.80;99.90
20057;DHT22;10189;49.546;7.906;2024-02-28T02:17:44;-0.90;99.90
20057;DHT22;10189;49.546;7.906;2024-02-28T02:20:11;-0.80;99.90
20057;DHT22;10189;49.546;7.906;2024-02-28T02:22:39;-0.90;99.90
20057;DHT22;10189;49.546;7.906;2024-02-28T02:25:06;-0.80;99.90
20057;DHT22;10189;49.546;7.906;2024-02-28T02:27:32;-0.90;99.90
20057;DHT22;10189;49.546;7.906;2024-02-28T02:29:58;-0.90;99.90
20057;DHT22;10189;49.546;7.906;2024-02-28T02:32:24;-0.90;99.90
20057;DHT22;10189;49.546;7.906;2024-02-28T02:34:50;-1.00;99.90
20057;DHT22;10189;49.546;7.906;2024-02-28T02:37:16;-1.00;99.90
20057;DHT22;10189;49.546;7.906;2024-02-28T02:39:42;-1.00;99.90
20057;DHT22;10189;49.546;7.906;2024-02-28T02:42:08;-1.10;99.90
20057;DHT22;10189;49.546;7.906;2024-02-28T02:44:34;-1.10;99.90
20057;DHT22;10189;49.546;7.906;2024-02-28T02:47:00;-1.20;99.90
20057;DHT22;10189;49.546;7.906;2024-02-28T02:49:26;-1.20;99.90
20057;DHT22;10189;49.546;7.906;2024-02-28T02:51:52;-1.10;99.90
20057;DHT22;10189;49.546;7.906;2024-02-28T02:54:17;-1.20;99.90
20057;DHT22;10189;49.546;7.906;2024-02-28T02:56:43;-1.20;99.90
20057;DHT22;10189;49.546;7.906;2024-02-28T02:59:10;-1.10;99.90
20057;DHT22;10189;49.546;7.906;2024-02-28T03:01:37;-1.20;99.90
20057;DHT22;10189;49.546;7.906;2024-02-28T03:04:03;-1.20;99.90
20057;DHT22;10189;49.546;7.906;2024-02-28T03:06:29;-1.20;99.90
20057;DHT22;10189;49.546;7.906;2024-02-28T03:08:55;-1.30;99.90
20057;DHT22;10189;49.546;7.906;2024-02-28T03:11:20;-1.30;99.90
20057;DHT22;10189;49.546;7.906;2024-02-28T03:13:46;-1.40;99.90
20057;DHT22;10189;49.546;7.906;2024-02-28T03:16:12;-1.50;99.90
20057;DHT22;10189;49.546;7.906;2024-02-28T03:18:38;-1.50;99.90
20057;DHT22;10189;49.546;7.906;2024-02-28T03:21:04;-1.60;99.90
20057;DHT22;10189;49.546;7.906;2024-02-28T03:23:30;-1.60;99.90
20057;DHT22;10189;49.546;7.906;2024-02-28T03:25:55;-1.70;99.90
20057;DHT22;10189;49.546;7.906;2024-02-28T03:28:21;-1.70;99.90
20057;DHT22;10189;49.546;7.906;2024-02-28T03:30:47;-1.70;99.90
20057;DHT22;10189;49.546;7.906;2024-02-28T03:33:13;-1.80;99.90
20057;DHT22;10189;49.546;7.906;2024-02-28T03:35:39;-1.80;99.90
20057;DHT22;10189;49.546;7.906;2024-02-28T03:38:05;-1.90;99.90
20057;DHT22;10189;49.546;7.906;2024-02-28T03:40:31;-1.90;99.90
20057;DHT22;10189;49.546;7.906;2024-02-28T03:42:57;-1.90;99.90
20057;DHT22;10189;49.546;7.906;2024-02-28T03:45:26;-1.90;99.90
20057;DHT22;10189;49.546;7.906;2024-02-28T03:47:53;-1.90;99.90
20057;DHT22;10189;49.546;7.906;2024-02-28T03:50:19;-1.70;99.90
20057;DHT22;10189;49.546;7.906;2024-02-28T03:52:44;-1.70;99.90
20057;DHT22;10189;49.546;7.906;2024-02-28T03:55:10;-1.70;99.90
20057;DHT22;10189;49.546;7.906;2024-02-28T03:57:36;-1.70;99.90
20057;DHT22;10189;49.546;7.906;2024-02-28T04:00:02;-1.70;99.90
20057;DHT22;10189;49.546;7.906;2024-02-28T04:02:37;-1.80;99.90
20057;DHT22;10189;49.546;7.906;2024-02-28T04:05:03;-1.90;99.90
20057;DHT22;10189;49.546;7.906;2024-02-28T04:07:29;-1.90;99.90
20057;DHT22;10189;49.546;7.906;2024-02-28T04:09:55;-2.00;99.90
20057;DHT22;10189;49.546;7.906;2024-02-28T04:12:21;-2.10;99.90
20057;DHT22;10189;49.546;7.906;2024-02-28T04:14:47;-2.10;99.90
20057;DHT22;10189;49.546;7.906;2024-02-28T04:17:13;-2.10;99.90
20057;DHT22;10189;49.546;7.906;2024-02-28T04:19:39;-2.10;99.90
20057;DHT22;10189;49.546;7.906;2024-02-28T04:22:05;-2.20;99.90
20057;DHT22;10189;49.546;7.906;2024-02-28T04:24:31;-2.10;99.90
20057;DHT22;10189;49.546;7.906;2024-02-28T04:26:58;-2.10;99.90
20057;DHT22;10189;49.546;7.906;2024-02-28T04:29:25;-1.90;99.90
20057;DHT22;10189;49.546;7.906;2024-02-28T04:31:51;-1.90;99.90
20057;DHT22;10189;49.546;7.906;2024-02-28T04:34:17;-2.00;99.90
20057;DHT22;10189;49.546;7.906;2024-02-28T04:36:42;-2.00;99.90
20057;DHT22;10189;49.546;7.906;2024-02-28T04:39:08;-2.10;99.90
20057;DHT22;10189;49.546;7.906;2024-02-28T04:41:34;-2.20;99.90
20057;DHT22;10189;49.546;7.906;2024-02-28T04:44:00;-2.20;99.90
20057;DHT22;10189;49.546;7.906;2024-02-28T04:46:26;-2.20;99.90
20057;DHT22;10189;49.546;7.906;2024-02-28T04:48:52;-2.20;99.90
20057;DHT22;10189;49.546;7.906;2024-02-28T04:51:17;-2.20;99.90
20057;DHT22;10189;49.546;7.906;2024-02-28T04:53:43;-2.20;99.90
20057;DHT22;10189;49.546;7.906;2024-02-28T04:56:10;-2.20;99.90
20057;DHT22;10189;49.546;7.906;2024-02-28T04:58:38;-2.20;99.90
20057;DHT22;10189;49.546;7.906;2024-02-28T05:01:04;-2.20;99.90
20057;DHT22;10189;49.546;7.906;2024-02-28T05:03:30;-2.10;99.90
20057;DHT22;10189;49.546;7.906;2024-02-28T05:05:55;-2.00;99.90
20057;DHT22;10189;49.546;7.906;2024-02-28T05:08:21;-1.90;99.90
20057;DHT22;10189;49.546;7.906;2024-02-28T05:10:47;-1.90;99.90
20057;DHT22;10189;49.546;7.906;2024-02-28T05:13:15;-1.90;99.90
20057;DHT22;10189;49.546;7.906;2024-02-28T05:15:41;-1.80;99.90
20057;DHT22;10189;49.546;7.906;2024-02-28T05:18:07;-1.80;99.90
20057;DHT22;10189;49.546;7.906;2024-02-28T05:20:33;-1.70;99.90
20057;DHT22;10189;49.546;7.906;2024-02-28T05:22:59;-1.60;99.90
20057;DHT22;10189;49.546;7.906;2024-02-28T05:25:24;-1.50;99.90
20057;DHT22;10189;49.546;7.906;2024-02-28T05:27:51;-1.40;99.90
20057;DHT22;10189;49.546;7.906;2024-02-28T05:30:16;-1.40;99.90
20057;DHT22;10189;49.546;7.906;2024-02-28T05:32:42;-1.30;99.90
20057;DHT22;10189;49.546;7.906;2024-02-28T05:35:08;-1.20;99.90
20057;DHT22;10189;49.546;7.906;2024-02-28T05:37:37;-1.20;99.90
20057;DHT22;10189;49.546;7.906;2024-02-28T05:40:03;-1.10;99.90
20057;DHT22;10189;49.546;7.906;2024-02-28T05:42:31;-1.00;99.90
20057;DHT22;10189;49.546;7.906;2024-02-28T05:44:57;-1.00;99.90
20057;DHT22;10189;49.546;7.906;2024-02-28T05:47:23;-1.00;99.90
20057;DHT22;10189;49.546;7.906;2024-02-28T05:49:49;-0.90;99.90
20057;DHT22;10189;49.546;7.906;2024-02-28T05:52:15;-0.70;99.90
20057;DHT22;10189;49.546;7.906;2024-02-28T05:54:41;-0.70;99.90
20057;DHT22;10189;49.546;7.906;2024-02-28T05:57:07;-0.70;99.90
20057;DHT22;10189;49.546;7.906;2024-02-28T05:59:33;-0.60;99.90
20057;DHT22;10189;49.546;7.906;2024-02-28T06:01:58;-0.60;99.90
20057;DHT22;10189;49.546;7.906;2024-02-28T06:04:24;-0.60;99.90
20057;DHT22;10189;49.546;7.906;2024-02-28T06:06:50;-0.60;99.90
20057;DHT22;10189;49.546;7.906;2024-02-28T06:09:16;-0.60;99.90
20057;DHT22;10189;49.546;7.906;2024-02-28T06:11:42;-0.60;99.90
20057;DHT22;10189;49.546;7.906;2024-02-28T06:14:08;-0.50;99.90
20057;DHT22;10189;49.546;7.906;2024-02-28T06:16:34;-0.60;99.90
20057;DHT22;10189;49.546;7.906;2024-02-28T06:19:00;-0.60;99.90
20057;DHT22;10189;49.546;7.906;2024-02-28T06:21:26;-0.60;99.90
20057;DHT22;10189;49.546;7.906;2024-02-28T06:23:52;-0.60;99.90
20057;DHT22;10189;49.546;7.906;2024-02-28T06:26:18;-0.60;99.90
20057;DHT22;10189;49.546;7.906;2024-02-28T06:28:44;-0.60;99.90
20057;DHT22;10189;49.546;7.906;2024-02-28T06:31:16;-0.50;99.90
20057;DHT22;10189;49.546;7.906;2024-02-28T06:33:45;-0.50;99.90
20057;DHT22;10189;49.546;7.906;2024-02-28T06:36:11;-0.50;99.90
20057;DHT22;10189;49.546;7.906;2024-02-28T06:38:37;-0.50;99.90
20057;DHT22;10189;49.546;7.906;2024-02-28T06:41:06;-0.40;99.90
20057;DHT22;10189;49.546;7.906;2024-02-28T06:43:35;-0.30;99.90
20057;DHT22;10189;49.546;7.906;2024-02-28T06:46:01;-0.30;99.90
20057;DHT22;10189;49.546;7.906;2024-02-28T06:48:28;-0.20;99.90
20057;DHT22;10189;49.546;7.906;2024-02-28T06:50:55;-0.20;99.90
20057;DHT22;10189;49.546;7.906;2024-02-28T06:53:21;-0.10;99.90
20057;DHT22;10189;49.546;7.906;2024-02-28T06:55:47;-0.10;99.90
20057;DHT22;10189;49.546;7.906;2024-02-28T06:58:14;0.00;99.90
20057;DHT22;10189;49.546;7.906;2024-02-28T07:00:41;0.10;99.90
20057;DHT22;10189;49.546;7.906;2024-02-28T07:03:06;0.10;99.90
20057;DHT22;10189;49.546;7.906;2024-02-28T07:05:33;0.20;99.90
20057;DHT22;10189;49.546;7.906;2024-02-28T07:08:01;0.30;99.90
20057;DHT22;10189;49.546;7.906;2024-02-28T07:10:27;0.30;99.90
20057;DHT22;10189;49.546;7.906;2024-02-28T07:12:53;0.40;99.90
20057;DHT22;10189;49.546;7.906;2024-02-28T07:15:19;0.30;99.90
20057;DHT22;10189;49.546;7.906;2024-02-28T07:17:47;0.40;99.90
20057;DHT22;10189;49.546;7.906;2024-02-28T07:20:13;0.30;99.90
20057;DHT22;10189;49.546;7.906;2024-02-28T07:22:42;0.30;99.90
20057;DHT22;10189;49.546;7.906;2024-02-28T07:25:08;0.30;99.90
20057;DHT22;10189;49.546;7.906;2024-02-28T07:27:34;0.00;99.90
20057;DHT22;10189;49.546;7.906;2024-02-28T07:30:01;0.00;99.90
20057;DHT22;10189;49.546;7.906;2024-02-28T07:32:29;-0.20;99.90
20057;DHT22;10189;49.546;7.906;2024-02-28T07:35:03;-0.20;99.90
20057;DHT22;10189;49.546;7.906;2024-02-28T07:37:29;-0.10;99.90
20057;DHT22;10189;49.546;7.906;2024-02-28T07:39:55;-0.10;99.90
20057;DHT22;10189;49.546;7.906;2024-02-28T07:42:20;-0.10;99.90
20057;DHT22;10189;49.546;7.906;2024-02-28T07:44:46;0.00;99.90
20057;DHT22;10189;49.546;7.906;2024-02-28T07:47:12;-0.10;99.90
20057;DHT22;10189;49.546;7.906;2024-02-28T07:49:40;-0.20;99.90
20057;DHT22;10189;49.546;7.906;2024-02-28T07:52:06;-0.10;99.90
20057;DHT22;10189;49.546;7.906;2024-02-28T07:54:31;0.00;99.90
20057;DHT22;10189;49.546;7.906;2024-02-28T07:56:57;0.20;99.90
20057;DHT22;10189;49.546;7.906;2024-02-28T07:59:23;0.30;99.90
20057;DHT22;10189;49.546;7.906;2024-02-28T08:01:49;0.30;99.90
20057;DHT22;10189;49.546;7.906;2024-02-28T08:04:15;0.40;99.90
20057;DHT22;10189;49.546;7.906;2024-02-28T08:06:41;0.50;99.90
20057;DHT22;10189;49.546;7.906;2024-02-28T08:09:06;0.40;99.90
20057;DHT22;10189;49.546;7.906;2024-02-28T08:11:32;0.30;99.90
20057;DHT22;10189;49.546;7.906;2024-02-28T08:13:58;0.30;99.90
20057;DHT22;10189;49.546;7.906;2024-02-28T08:16:24;0.40;99.90
20057;DHT22;10189;49.546;7.906;2024-02-28T08:18:50;0.50;99.90
20057;DHT22;10189;49.546;7.906;2024-02-28T08:21:16;0.60;99.90
20057;DHT22;10189;49.546;7.906;2024-02-28T08:23:43;0.80;99.90
20057;DHT22;10189;49.546;7.906;2024-02-28T08:26:10;0.70;99.90
20057;DHT22;10189;49.546;7.906;2024-02-28T08:28:36;0.70;99.90
20057;DHT22;10189;49.546;7.906;2024-02-28T08:31:02;0.80;99.90
20057;DHT22;10189;49.546;7.906;2024-02-28T08:33:28;0.60;99.90
20057;DHT22;10189;49.546;7.906;2024-02-28T08:35:54;0.80;99.90
20057;DHT22;10189;49.546;7.906;2024-02-28T08:38:20;0.90;99.90
20057;DHT22;10189;49.546;7.906;2024-02-28T08:40:46;0.90;99.90
20057;DHT22;10189;49.546;7.906;2024-02-28T08:43:12;0.80;99.90
20057;DHT22;10189;49.546;7.906;2024-02-28T08:45:38;0.90;99.90
20057;DHT22;10189;49.546;7.906;2024-02-28T08:48:05;1.00;99.90
20057;DHT22;10189;49.546;7.906;2024-02-28T08:50:31;0.90;99.90
20057;DHT22;10189;49.546;7.906;2024-02-28T08:52:57;0.90;99.90
20057;DHT22;10189;49.546;7.906;2024-02-28T08:55:23;0.90;99.90
20057;DHT22;10189;49.546;7.906;2024-02-28T08:57:49;1.10;99.90
20057;DHT22;10189;49.546;7.906;2024-02-28T09:00:15;1.30;99.90
20057;DHT22;10189;49.546;7.906;2024-02-28T09:02:41;1.60;99.90
20057;DHT22;10189;49.546;7.906;2024-02-28T09:05:07;1.80;99.90
20057;DHT22;10189;49.546;7.906;2024-02-28T09:07:34;2.10;99.90
20057;DHT22;10189;49.546;7.906;2024-02-28T09:10:04;2.20;99.90
20057;DHT22;10189;49.546;7.906;2024-02-28T09:12:31;2.20;99.90
20057;DHT22;10189;49.546;7.906;2024-02-28T09:14:57;1.90;99.90
20057;DHT22;10189;49.546;7.906;2024-02-28T09:17:24;1.70;99.90
20057;DHT22;10189;49.546;7.906;2024-02-28T09:19:50;1.70;99.90
20057;DHT22;10189;49.546;7.906;2024-02-28T09:22:17;1.70;99.90
20057;DHT22;10189;49.546;7.906;2024-02-28T09:24:43;1.80;99.90
20057;DHT22;10189;49.546;7.906;2024-02-28T09:27:09;2.10;99.90
20057;DHT22;10189;49.546;7.906;2024-02-28T09:29:35;2.20;99.90
20057;DHT22;10189;49.546;7.906;2024-02-28T09:32:01;2.30;99.90
20057;DHT22;10189;49.546;7.906;2024-02-28T09:34:27;2.20;99.90
20057;DHT22;10189;49.546;7.906;2024-02-28T09:36:53;2.30;99.90
20057;DHT22;10189;49.546;7.906;2024-02-28T09:39:19;2.40;99.90
20057;DHT22;10189;49.546;7.906;2024-02-28T09:41:50;2.50;99.90
20057;DHT22;10189;49.546;7.906;2024-02-28T09:44:16;2.70;99.90
20057;DHT22;10189;49.546;7.906;2024-02-28T09:46:43;2.80;99.90
20057;DHT22;10189;49.546;7.906;2024-02-28T09:49:09;2.90;99.90
20057;DHT22;10189;49.546;7.906;2024-02-28T09:51:36;3.00;99.90
20057;DHT22;10189;49.546;7.906;2024-02-28T09:54:03;3.20;99.90
20057;DHT22;10189;49.546;7.906;2024-02-28T09:56:30;3.30;99.90
20057;DHT22;10189;49.546;7.906;2024-02-28T09:58:59;3.50;99.90
20057;DHT22;10189;49.546;7.906;2024-02-28T10:01:28;3.50;99.90
20057;DHT22;10189;49.546;7.906;2024-02-28T10:03:55;3.60;99.90
20057;DHT22;10189;49.546;7.906;2024-02-28T10:06:24;3.80;99.90
20057;DHT22;10189;49.546;7.906;2024-02-28T10:08:50;4.10;99.90
20057;DHT22;10189;49.546;7.906;2024-02-28T10:11:23;4.30;99.90
20057;DHT22;10189;49.546;7.906;2024-02-28T10:13:52;4.40;99.90
20057;DHT22;10189;49.546;7.906;2024-02-28T10:16:20;4.20;99.90
20057;DHT22;10189;49.546;7.906;2024-02-28T10:18:46;4.30;99.90
20057;DHT22;10189;49.546;7.906;2024-02-28T10:21:14;4.30;99.90
20057;DHT22;10189;49.546;7.906;2024-02-28T10:23:44;4.30;99.90
20057;DHT22;10189;49.546;7.906;2024-02-28T10:26:11;4.60;99.90
20057;DHT22;10189;49.546;7.906;2024-02-28T10:28:38;4.70;99.90
20057;DHT22;10189;49.546;7.906;2024-02-28T10:31:06;4.70;99.90
20057;DHT22;10189;49.546;7.906;2024-02-28T10:33:36;4.80;99.90
20057;DHT22;10189;49.546;7.906;2024-02-28T10:36:03;4.90;99.90
20057;DHT22;10189;49.546;7.906;2024-02-28T10:38:32;4.90;99.90
20057;DHT22;10189;49.546;7.906;2024-02-28T10:41:04;4.90;99.90
20057;DHT22;10189;49.546;7.906;2024-02-28T10:43:31;5.10;99.90
20057;DHT22;10189;49.546;7.906;2024-02-28T10:46:00;5.10;99.90
20057;DHT22;10189;49.546;7.906;2024-02-28T10:48:27;5.10;99.90
20057;DHT22;10189;49.546;7.906;2024-02-28T10:50:54;5.00;99.90
20057;DHT22;10189;49.546;7.906;2024-02-28T10:53:22;4.80;99.90
20057;DHT22;10189;49.546;7.906;2024-02-28T10:55:57;4.70;99.90
20057;DHT22;10189;49.546;7.906;2024-02-28T10:58:39;4.60;99.90
20057;DHT22;10189;49.546;7.906;2024-02-28T11:01:13;4.50;99.90
20057;DHT22;10189;49.546;7.906;2024-02-28T11:03:40;4.40;99.90
20057;DHT22;10189;49.546;7.906;2024-02-28T11:06:19;4.40;99.90
20057;DHT22;10189;49.546;7.906;2024-02-28T11:08:47;4.50;99.90
20057;DHT22;10189;49.546;7.906;2024-02-28T11:11:15;4.50;99.90
20057;DHT22;10189;49.546;7.906;2024-02-28T11:13:54;4.60;99.90
20057;DHT22;10189;49.546;7.906;2024-02-28T11:16:32;4.60;99.90
20057;DHT22;10189;49.546;7.906;2024-02-28T11:19:00;4.50;99.90
20057;DHT22;10189;49.546;7.906;2024-02-28T11:21:27;4.80;99.90
20057;DHT22;10189;49.546;7.906;2024-02-28T11:23:57;4.90;99.90
20057;DHT22;10189;49.546;7.906;2024-02-28T11:26:24;5.10;99.90
20057;DHT22;10189;49.546;7.906;2024-02-28T11:28:51;5.10;99.90
20057;DHT22;10189;49.546;7.906;2024-02-28T11:31:17;5.30;99.90
20057;DHT22;10189;49.546;7.906;2024-02-28T11:33:44;5.30;99.90
20057;DHT22;10189;49.546;7.906;2024-02-28T11:36:12;5.20;99.90
20057;DHT22;10189;49.546;7.906;2024-02-28T11:38:39;5.20;99.90
20057;DHT22;10189;49.546;7.906;2024-02-28T11:41:06;5.30;99.90
20057;DHT22;10189;49.546;7.906;2024-02-28T11:43:32;5.40;99.90
20057;DHT22;10189;49.546;7.906;2024-02-28T11:46:00;5.50;99.90
20057;DHT22;10189;49.546;7.906;2024-02-28T11:48:27;5.70;99.90
20057;DHT22;10189;49.546;7.906;2024-02-28T11:50:53;5.90;99.90
20057;DHT22;10189;49.546;7.906;2024-02-28T11:53:19;5.90;99.90
20057;DHT22;10189;49.546;7.906;2024-02-28T11:55:46;6.00;99.90
20057;DHT22;10189;49.546;7.906;2024-02-28T11:58:13;6.10;99.90
20057;DHT22;10189;49.546;7.906;2024-02-28T12:00:47;6.00;98.80
20057;DHT22;10189;49.546;7.906;2024-02-28T12:03:13;6.10;99.60
20057;DHT22;10189;49.546;7.906;2024-02-28T12:05:43;6.20;97.30
20057;DHT22;10189;49.546;7.906;2024-02-28T12:08:11;6.20;97.40
20057;DHT22;10189;49.546;7.906;2024-02-28T12:10:37;6.30;96.20
20057;DHT22;10189;49.546;7.906;2024-02-28T12:13:03;6.40;97.00
20057;DHT22;10189;49.546;7.906;2024-02-28T12:15:30;6.60;98.10
20057;DHT22;10189;49.546;7.906;2024-02-28T12:17:57;6.80;96.40
20057;DHT22;10189;49.546;7.906;2024-02-28T12:20:25;6.90;93.00
20057;DHT22;10189;49.546;7.906;2024-02-28T12:22:51;7.00;92.90
20057;DHT22;10189;49.546;7.906;2024-02-28T12:25:17;7.10;92.20
20057;DHT22;10189;49.546;7.906;2024-02-28T12:27:43;7.10;91.90
20057;DHT22;10189;49.546;7.906;2024-02-28T12:30:10;7.10;91.40
20057;DHT22;10189;49.546;7.906;2024-02-28T12:32:36;7.20;92.50
20057;DHT22;10189;49.546;7.906;2024-02-28T12:35:02;7.20;91.60
20057;DHT22;10189;49.546;7.906;2024-02-28T12:37:29;7.40;91.70
20057;DHT22;10189;49.546;7.906;2024-02-28T12:39:56;7.50;90.60
20057;DHT22;10189;49.546;7.906;2024-02-28T12:42:25;7.50;89.50
20057;DHT22;10189;49.546;7.906;2024-02-28T12:44:52;7.50;88.30
20057;DHT22;10189;49.546;7.906;2024-02-28T12:47:27;7.50;89.50
20057;DHT22;10189;49.546;7.906;2024-02-28T12:49:58;7.50;89.40
20057;DHT22;10189;49.546;7.906;2024-02-28T12:52:48;7.50;89.80
20057;DHT22;10189;49.546;7.906;2024-02-28T12:55:22;7.70;88.10
20057;DHT22;10189;49.546;7.906;2024-02-28T12:57:52;7.80;87.50
20057;DHT22;10189;49.546;7.906;2024-02-28T13:00:21;7.90;86.70
20057;DHT22;10189;49.546;7.906;2024-02-28T13:02:48;8.10;86.00
20057;DHT22;10189;49.546;7.906;2024-02-28T13:05:26;8.20;84.90
20057;DHT22;10189;49.546;7.906;2024-02-28T13:07:51;8.30;81.60
20057;DHT22;10189;49.546;7.906;2024-02-28T13:10:18;8.40;82.10
20057;DHT22;10189;49.546;7.906;2024-02-28T13:12:44;8.50;83.30
20057;DHT22;10189;49.546;7.906;2024-02-28T13:15:10;8.60;82.40
20057;DHT22;10189;49.546;7.906;2024-02-28T13:17:36;8.50;81.50
20057;DHT22;10189;49.546;7.906;2024-02-28T13:20:02;8.60;80.80
20057;DHT22;10189;49.546;7.906;2024-02-28T13:22:28;8.70;81.00
20057;DHT22;10189;49.546;7.906;2024-02-28T13:24:55;8.90;81.10
20057;DHT22;10189;49.546;7.906;2024-02-28T13:27:21;9.10;79.70
20057;DHT22;10189;49.546;7.906;2024-02-28T13:29:46;9.30;78.20
20057;DHT22;10189;49.546;7.906;2024-02-28T13:32:12;9.40;76.70
20057;DHT22;10189;49.546;7.906;2024-02-28T13:34:39;9.60;73.90
20057;DHT22;10189;49.546;7.906;2024-02-28T13:37:05;9.60;73.40
20057;DHT22;10189;49.546;7.906;2024-02-28T13:39:31;9.70;73.20
20057;DHT22;10189;49.546;7.906;2024-02-28T13:41:57;9.80;70.20
20057;DHT22;10189;49.546;7.906;2024-02-28T13:44:24;9.70;69.60
20057;DHT22;10189;49.546;7.906;2024-02-28T13:46:51;9.70;70.10
20057;DHT22;10189;49.546;7.906;2024-02-28T13:49:19;9.60;72.20
20057;DHT22;10189;49.546;7.906;2024-02-28T13:51:45;9.70;72.60
20057;DHT22;10189;49.546;7.906;2024-02-28T13:54:13;9.80;71.00
20057;DHT22;10189;49.546;7.906;2024-02-28T13:56:39;9.70;70.90
20057;DHT22;10189;49.546;7.906;2024-02-28T13:59:05;9.60;69.50
20057;DHT22;10189;49.546;7.906;2024-02-28T14:01:32;9.60;71.20
20057;DHT22;10189;49.546;7.906;2024-02-28T14:03:58;9.60;71.30
20057;DHT22;10189;49.546;7.906;2024-02-28T14:06:24;9.70;71.00
20057;DHT22;10189;49.546;7.906;2024-02-28T14:08:50;9.70;70.40
20057;DHT22;10189;49.546;7.906;2024-02-28T14:11:25;9.70;69.50
20057;DHT22;10189;49.546;7.906;2024-02-28T14:13:52;9.70;68.30
20057;DHT22;10189;49.546;7.906;2024-02-28T14:16:18;9.50;67.60
20057;DHT22;10189;49.546;7.906;2024-02-28T14:18:45;9.50;66.60
20057;DHT22;10189;49.546;7.906;2024-02-28T14:21:11;9.40;67.30
20057;DHT22;10189;49.546;7.906;2024-02-28T14:23:37;9.40;66.50
20057;DHT22;10189;49.546;7.906;2024-02-28T14:26:03;9.20;66.70
20057;DHT22;10189;49.546;7.906;2024-02-28T14:28:30;9.30;67.30
20057;DHT22;10189;49.546;7.906;2024-02-28T14:30:56;9.30;66.40
20057;DHT22;10189;49.546;7.906;2024-02-28T14:33:22;9.30;65.20
20057;DHT22;10189;49.546;7.906;2024-02-28T14:35:48;9.30;67.30
20057;DHT22;10189;49.546;7.906;2024-02-28T14:38:14;9.20;67.20
20057;DHT22;10189;49.546;7.906;2024-02-28T14:40:40;9.30;67.00
20057;DHT22;10189;49.546;7.906;2024-02-28T14:43:07;9.30;68.30
20057;DHT22;10189;49.546;7.906;2024-02-28T14:45:34;9.20;64.30
20057;DHT22;10189;49.546;7.906;2024-02-28T14:48:00;9.20;65.80
20057;DHT22;10189;49.546;7.906;2024-02-28T14:50:26;9.20;66.10
20057;DHT22;10189;49.546;7.906;2024-02-28T14:52:52;9.20;66.80
20057;DHT22;10189;49.546;7.906;2024-02-28T14:55:17;9.20;66.50
20057;DHT22;10189;49.546;7.906;2024-02-28T14:57:43;9.10;66.90
20057;DHT22;10189;49.546;7.906;2024-02-28T15:00:10;9.10;68.00
20057;DHT22;10189;49.546;7.906;2024-02-28T15:02:43;9.10;67.30
20057;DHT22;10189;49.546;7.906;2024-02-28T15:05:10;9.10;64.00
20057;DHT22;10189;49.546;7.906;2024-02-28T15:07:37;9.00;63.30
20057;DHT22;10189;49.546;7.906;2024-02-28T15:10:06;8.80;63.00
20057;DHT22;10189;49.546;7.906;2024-02-28T15:12:33;8.70;63.00
20057;DHT22;10189;49.546;7.906;2024-02-28T15:15:00;8.70;62.90
20057;DHT22;10189;49.546;7.906;2024-02-28T15:17:28;8.60;62.40
20057;DHT22;10189;49.546;7.906;2024-02-28T15:19:53;8.60;64.30
20057;DHT22;10189;49.546;7.906;2024-02-28T15:22:19;8.60;63.30
20057;DHT22;10189;49.546;7.906;2024-02-28T15:24:45;8.60;63.40
20057;DHT22;10189;49.546;7.906;2024-02-28T15:27:12;8.60;63.60
20057;DHT22;10189;49.546;7.906;2024-02-28T15:29:38;8.60;64.20
20057;DHT22;10189;49.546;7.906;2024-02-28T15:32:05;8.60;63.90
20057;DHT22;10189;49.546;7.906;2024-02-28T15:34:31;8.60;64.40
20057;DHT22;10189;49.546;7.906;2024-02-28T15:36:57;8.50;64.50